sensor_id;sensor_type;location;lat;lon;timestamp;P1;durP1;ratioP1;P2;durP2;ratioP2
24459;SDS011;12630;50.860;5.714;2022-10-16T00:01:24;4.15;;;1.25;;
24459;SDS011;12630;50.860;5.714;2022-10-16T00:06:21;1.63;;;0.90;;
24459;SDS011;12630;50.860;5.714;2022-10-16T00:08:48;3.15;;;1.10;;
24459;SDS011;12630;50.860;5.714;2022-10-16T00:11:18;1.58;;;1.08;;
24459;SDS011;12630;50.860;5.714;2022-10-16T00:13:47;0.90;;;0.80;;
24459;SDS011;12630;50.860;5.714;2022-10-16T00:16:15;2.15;;;1.08;;
24459;SDS011;12630;50.860;5.714;2022-10-16T00:18:43;3.75;;;1.15;;
24459;SDS011;12630;50.860;5.714;2022-10-16T00:21:12;1.55;;;1.00;;
24459;SDS011;12630;50.860;5.714;2022-10-16T00:23:40;1.65;;;1.20;;
24459;SDS011;12630;50.860;5.714;2022-10-16T00:26:08;2.80;;;1.40;;
24459;SDS011;12630;50.860;5.714;2022-10-16T00:28:39;5.47;;;1.27;;
24459;SDS011;12630;50.860;5.714;2022-10-16T00:31:07;6.13;;;1.55;;
24459;SDS011;12630;50.860;5.714;2022-10-16T00:33:37;4.53;;;1.48;;
24459;SDS011;12630;50.860;5.714;2022-10-16T00:36:05;2.67;;;1.33;;
24459;SDS011;12630;50.860;5.714;2022-10-16T00:38:33;2.72;;;1.63;;
24459;SDS011;12630;50.860;5.714;2022-10-16T00:41:00;4.40;;;2.03;;
24459;SDS011;12630;50.860;5.714;2022-10-16T00:43:35;3.28;;;1.25;;
24459;SDS011;12630;50.860;5.714;2022-10-16T00:46:09;2.70;;;1.35;;
24459;SDS011;12630;50.860;5.714;2022-10-16T00:48:40;1.85;;;1.08;;
24459;SDS011;12630;50.860;5.714;2022-10-16T00:51:11;1.70;;;0.98;;
24459;SDS011;12630;50.860;5.714;2022-10-16T00:53:38;1.92;;;1.50;;
24459;SDS011;12630;50.860;5.714;2022-10-16T00:56:06;3.10;;;1.10;;
24459;SDS011;12630;50.860;5.714;2022-10-16T00:58:33;3.22;;;1.08;;
24459;SDS011;12630;50.860;5.714;2022-10-16T01:01:00;5.30;;;1.30;;
24459;SDS011;12630;50.860;5.714;2022-10-16T01:03:30;1.65;;;1.20;;
24459;SDS011;12630;50.860;5.714;2022-10-16T01:06:01;2.72;;;1.38;;
24459;SDS011;12630;50.860;5.714;2022-10-16T01:08:43;2.17;;;0.90;;
24459;SDS011;12630;50.860;5.714;2022-10-16T01:11:17;1.17;;;1.00;;
24459;SDS011;12630;50.860;5.714;2022-10-16T01:13:52;1.90;;;1.42;;
24459;SDS011;12630;50.860;5.714;2022-10-16T01:16:23;3.08;;;1.05;;
24459;SDS011;12630;50.860;5.714;2022-10-16T01:19:01;1.10;;;1.00;;
24459;SDS011;12630;50.860;5.714;2022-10-16T01:21:36;3.90;;;1.55;;
24459;SDS011;12630;50.860;5.714;2022-10-16T01:24:08;1.98;;;0.98;;
24459;SDS011;12630;50.860;5.714;2022-10-16T01:29:41;2.80;;;1.05;;
24459;SDS011;12630;50.860;5.714;2022-10-16T01:32:16;8.80;;;1.13;;
24459;SDS011;12630;50.860;5.714;2022-10-16T01:34:48;3.22;;;1.00;;
24459;SDS011;12630;50.860;5.714;2022-10-16T01:37:20;3.17;;;1.05;;
24459;SDS011;12630;50.860;5.714;2022-10-16T01:39:54;2.03;;;0.90;;
24459;SDS011;12630;50.860;5.714;2022-10-16T01:42:28;2.70;;;0.80;;
24459;SDS011;12630;50.860;5.714;2022-10-16T01:45:00;4.35;;;1.00;;
24459;SDS011;12630;50.860;5.714;2022-10-16T01:47:31;2.38;;;0.80;;
24459;SDS011;12630;50.860;5.714;2022-10-16T01:50:02;1.65;;;0.70;;
24459;SDS011;12630;50.860;5.714;2022-10-16T01:52:31;0.95;;;0.60;;
24459;SDS011;12630;50.860;5.714;2022-10-16T01:57:30;1.45;;;1.10;;
24459;SDS011;12630;50.860;5.714;2022-10-16T02:00:01;0.80;;;0.63;;
24459;SDS011;12630;50.860;5.714;2022-10-16T02:02:31;0.88;;;0.60;;
24459;SDS011;12630;50.860;5.714;2022-10-16T02:05:02;3.97;;;0.70;;
24459;SDS011;12630;50.860;5.714;2022-10-16T02:07:35;2.40;;;0.80;;
24459;SDS011;12630;50.860;5.714;2022-10-16T02:10:02;3.22;;;0.93;;
24459;SDS011;12630;50.860;5.714;2022-10-16T02:12:32;2.03;;;1.00;;
24459;SDS011;12630;50.860;5.714;2022-10-16T02:15:01;1.88;;;0.90;;
24459;SDS011;12630;50.860;5.714;2022-10-16T02:17:29;4.22;;;0.90;;
24459;SDS011;12630;50.860;5.714;2022-10-16T02:19:56;3.17;;;0.95;;
24459;SDS011;12630;50.860;5.714;2022-10-16T02:22:26;2.65;;;0.70;;
24459;SDS011;12630;50.860;5.714;2022-10-16T02:24:56;2.15;;;1.20;;
24459;SDS011;12630;50.860;5.714;2022-10-16T02:27:31;3.90;;;1.13;;
24459;SDS011;12630;50.860;5.714;2022-10-16T02:30:06;2.65;;;1.08;;
24459;SDS011;12630;50.860;5.714;2022-10-16T02:32:37;3.38;;;1.00;;
24459;SDS011;12630;50.860;5.714;2022-10-16T02:35:08;4.45;;;1.08;;
24459;SDS011;12630;50.860;5.714;2022-10-16T02:37:36;5.28;;;1.10;;
24459;SDS011;12630;50.860;5.714;2022-10-16T02:40:05;0.60;;;0.60;;
24459;SDS011;12630;50.860;5.714;2022-10-16T02:42:36;4.43;;;1.10;;
24459;SDS011;12630;50.860;5.714;2022-10-16T02:45:05;3.63;;;0.90;;
24459;SDS011;12630;50.860;5.714;2022-10-16T02:47:34;4.35;;;1.35;;
24459;SDS011;12630;50.860;5.714;2022-10-16T02:50:01;1.60;;;1.10;;
24459;SDS011;12630;50.860;5.714;2022-10-16T02:52:29;4.20;;;1.25;;
24459;SDS011;12630;50.860;5.714;2022-10-16T02:54:56;3.38;;;1.15;;
24459;SDS011;12630;50.860;5.714;2022-10-16T02:57:23;2.28;;;1.10;;
24459;SDS011;12630;50.860;5.714;2022-10-16T02:59:52;2.63;;;0.95;;
24459;SDS011;12630;50.860;5.714;2022-10-16T03:02:20;3.95;;;1.10;;
24459;SDS011;12630;50.860;5.714;2022-10-16T03:04:48;1.95;;;1.17;;
24459;SDS011;12630;50.860;5.714;2022-10-16T03:07:15;2.15;;;1.45;;
24459;SDS011;12630;50.860;5.714;2022-10-16T03:09:43;1.77;;;1.17;;
24459;SDS011;12630;50.860;5.714;2022-10-16T03:12:10;1.00;;;0.70;;
24459;SDS011;12630;50.860;5.714;2022-10-16T03:14:38;1.60;;;1.10;;
24459;SDS011;12630;50.860;5.714;2022-10-16T03:17:07;3.35;;;1.55;;
24459;SDS011;12630;50.860;5.714;2022-10-16T03:19:34;1.40;;;0.90;;
24459;SDS011;12630;50.860;5.714;2022-10-16T03:22:02;1.75;;;1.38;;
24459;SDS011;12630;50.860;5.714;2022-10-16T03:24:29;1.02;;;0.90;;
24459;SDS011;12630;50.860;5.714;2022-10-16T03:26:56;1.13;;;0.95;;
24459;SDS011;12630;50.860;5.714;2022-10-16T03:29:23;4.78;;;1.38;;
24459;SDS011;12630;50.860;5.714;2022-10-16T03:31:51;1.20;;;1.10;;
24459;SDS011;12630;50.860;5.714;2022-10-16T03:34:19;2.53;;;1.08;;
24459;SDS011;12630;50.860;5.714;2022-10-16T03:36:47;1.13;;;1.00;;
24459;SDS011;12630;50.860;5.714;2022-10-16T03:39:14;1.73;;;1.15;;
24459;SDS011;12630;50.860;5.714;2022-10-16T03:41:41;3.88;;;1.23;;
24459;SDS011;12630;50.860;5.714;2022-10-16T03:44:08;3.95;;;1.23;;
24459;SDS011;12630;50.860;5.714;2022-10-16T03:46:36;1.30;;;1.00;;
24459;SDS011;12630;50.860;5.714;2022-10-16T03:49:03;1.20;;;0.95;;
24459;SDS011;12630;50.860;5.714;2022-10-16T03:51:32;1.27;;;0.95;;
24459;SDS011;12630;50.860;5.714;2022-10-16T03:53:59;1.50;;;0.93;;
24459;SDS011;12630;50.860;5.714;2022-10-16T03:56:26;1.50;;;1.00;;
24459;SDS011;12630;50.860;5.714;2022-10-16T03:58:54;1.10;;;1.00;;
24459;SDS011;12630;50.860;5.714;2022-10-16T04:01:21;1.35;;;1.00;;
24459;SDS011;12630;50.860;5.714;2022-10-16T04:03:48;1.02;;;1.00;;
24459;SDS011;12630;50.860;5.714;2022-10-16T04:06:15;3.55;;;1.33;;
24459;SDS011;12630;50.860;5.714;2022-10-16T04:08:44;1.23;;;0.90;;
24459;SDS011;12630;50.860;5.714;2022-10-16T04:11:12;2.63;;;1.37;;
24459;SDS011;12630;50.860;5.714;2022-10-16T04:13:39;1.35;;;1.00;;
24459;SDS011;12630;50.860;5.714;2022-10-16T04:16:06;2.30;;;0.95;;
24459;SDS011;12630;50.860;5.714;2022-10-16T04:18:34;1.23;;;1.13;;
24459;SDS011;12630;50.860;5.714;2022-10-16T04:21:02;3.10;;;1.02;;
24459;SDS011;12630;50.860;5.714;2022-10-16T04:23:30;2.63;;;1.20;;
24459;SDS011;12630;50.860;5.714;2022-10-16T04:25:59;1.98;;;0.82;;
24459;SDS011;12630;50.860;5.714;2022-10-16T04:28:26;2.40;;;1.13;;
24459;SDS011;12630;50.860;5.714;2022-10-16T04:30:55;2.67;;;1.40;;
24459;SDS011;12630;50.860;5.714;2022-10-16T04:33:22;1.15;;;1.05;;
24459;SDS011;12630;50.860;5.714;2022-10-16T04:35:55;2.13;;;1.05;;
24459;SDS011;12630;50.860;5.714;2022-10-16T04:38:23;1.30;;;1.02;;
24459;SDS011;12630;50.860;5.714;2022-10-16T04:40:50;4.03;;;1.30;;
24459;SDS011;12630;50.860;5.714;2022-10-16T04:43:19;2.63;;;1.40;;
24459;SDS011;12630;50.860;5.714;2022-10-16T04:45:47;4.47;;;1.35;;
24459;SDS011;12630;50.860;5.714;2022-10-16T04:48:16;1.52;;;1.10;;
24459;SDS011;12630;50.860;5.714;2022-10-16T04:50:43;1.92;;;1.20;;
24459;SDS011;12630;50.860;5.714;2022-10-16T04:53:10;1.40;;;1.17;;
24459;SDS011;12630;50.860;5.714;2022-10-16T04:55:38;3.42;;;1.40;;
24459;SDS011;12630;50.860;5.714;2022-10-16T04:58:05;1.35;;;1.25;;
24459;SDS011;12630;50.860;5.714;2022-10-16T05:00:34;1.38;;;1.27;;
24459;SDS011;12630;50.860;5.714;2022-10-16T05:03:01;2.77;;;1.23;;
24459;SDS011;12630;50.860;5.714;2022-10-16T05:05:32;4.88;;;1.30;;
24459;SDS011;12630;50.860;5.714;2022-10-16T05:07:59;1.60;;;1.40;;
24459;SDS011;12630;50.860;5.714;2022-10-16T05:10:27;6.88;;;1.65;;
24459;SDS011;12630;50.860;5.714;2022-10-16T05:12:57;3.67;;;1.42;;
24459;SDS011;12630;50.860;5.714;2022-10-16T05:15:25;1.70;;;1.38;;
24459;SDS011;12630;50.860;5.714;2022-10-16T05:17:54;1.85;;;1.30;;
24459;SDS011;12630;50.860;5.714;2022-10-16T05:20:22;2.53;;;1.25;;
24459;SDS011;12630;50.860;5.714;2022-10-16T05:22:49;1.38;;;1.27;;
24459;SDS011;12630;50.860;5.714;2022-10-16T05:25:16;2.72;;;1.10;;
24459;SDS011;12630;50.860;5.714;2022-10-16T05:27:46;4.40;;;1.35;;
24459;SDS011;12630;50.860;5.714;2022-10-16T05:30:14;2.38;;;1.25;;
24459;SDS011;12630;50.860;5.714;2022-10-16T05:32:45;2.33;;;1.48;;
24459;SDS011;12630;50.860;5.714;2022-10-16T05:35:15;1.65;;;1.23;;
24459;SDS011;12630;50.860;5.714;2022-10-16T05:37:43;2.17;;;1.23;;
24459;SDS011;12630;50.860;5.714;2022-10-16T05:40:10;3.90;;;1.30;;
24459;SDS011;12630;50.860;5.714;2022-10-16T05:42:38;2.40;;;1.42;;
24459;SDS011;12630;50.860;5.714;2022-10-16T05:45:06;1.70;;;1.30;;
24459;SDS011;12630;50.860;5.714;2022-10-16T05:47:35;1.48;;;1.38;;
24459;SDS011;12630;50.860;5.714;2022-10-16T05:50:03;1.92;;;1.48;;
24459;SDS011;12630;50.860;5.714;2022-10-16T05:52:32;3.20;;;1.30;;
24459;SDS011;12630;50.860;5.714;2022-10-16T05:55:00;2.65;;;1.30;;
24459;SDS011;12630;50.860;5.714;2022-10-16T05:57:27;1.27;;;1.15;;
24459;SDS011;12630;50.860;5.714;2022-10-16T05:59:55;2.92;;;1.20;;
24459;SDS011;12630;50.860;5.714;2022-10-16T06:02:22;2.55;;;1.42;;
24459;SDS011;12630;50.860;5.714;2022-10-16T06:04:51;2.47;;;1.40;;
24459;SDS011;12630;50.860;5.714;2022-10-16T06:07:19;2.80;;;1.83;;
24459;SDS011;12630;50.860;5.714;2022-10-16T06:09:49;2.58;;;1.35;;
24459;SDS011;12630;50.860;5.714;2022-10-16T06:12:16;2.75;;;1.50;;
24459;SDS011;12630;50.860;5.714;2022-10-16T06:14:44;3.63;;;1.50;;
24459;SDS011;12630;50.860;5.714;2022-10-16T06:17:12;4.10;;;1.80;;
24459;SDS011;12630;50.860;5.714;2022-10-16T06:19:40;4.00;;;1.70;;
24459;SDS011;12630;50.860;5.714;2022-10-16T06:22:07;1.70;;;1.27;;
24459;SDS011;12630;50.860;5.714;2022-10-16T06:24:34;4.93;;;2.72;;
24459;SDS011;12630;50.860;5.714;2022-10-16T06:27:04;2.40;;;1.40;;
24459;SDS011;12630;50.860;5.714;2022-10-16T06:29:31;1.20;;;1.10;;
24459;SDS011;12630;50.860;5.714;2022-10-16T06:31:59;1.63;;;1.30;;
24459;SDS011;12630;50.860;5.714;2022-10-16T06:34:26;3.35;;;1.65;;
24459;SDS011;12630;50.860;5.714;2022-10-16T06:36:53;6.50;;;1.52;;
24459;SDS011;12630;50.860;5.714;2022-10-16T06:39:20;4.05;;;1.70;;
24459;SDS011;12630;50.860;5.714;2022-10-16T06:41:48;3.60;;;1.63;;
24459;SDS011;12630;50.860;5.714;2022-10-16T06:44:16;6.50;;;1.45;;
24459;SDS011;12630;50.860;5.714;2022-10-16T06:46:44;5.25;;;1.85;;
24459;SDS011;12630;50.860;5.714;2022-10-16T06:49:11;2.85;;;1.60;;
24459;SDS011;12630;50.860;5.714;2022-10-16T06:51:38;7.85;;;2.10;;
24459;SDS011;12630;50.860;5.714;2022-10-16T06:54:07;4.30;;;1.27;;
24459;SDS011;12630;50.860;5.714;2022-10-16T06:56:34;3.08;;;1.42;;
24459;SDS011;12630;50.860;5.714;2022-10-16T06:59:02;2.22;;;1.58;;
24459;SDS011;12630;50.860;5.714;2022-10-16T07:01:31;2.60;;;1.17;;
24459;SDS011;12630;50.860;5.714;2022-10-16T07:03:58;2.05;;;1.60;;
24459;SDS011;12630;50.860;5.714;2022-10-16T07:06:27;4.07;;;1.80;;
24459;SDS011;12630;50.860;5.714;2022-10-16T07:09:00;3.53;;;1.30;;
24459;SDS011;12630;50.860;5.714;2022-10-16T07:11:29;3.05;;;1.70;;
24459;SDS011;12630;50.860;5.714;2022-10-16T07:13:56;5.55;;;1.23;;
24459;SDS011;12630;50.860;5.714;2022-10-16T07:16:26;3.75;;;1.60;;
24459;SDS011;12630;50.860;5.714;2022-10-16T07:18:56;1.60;;;1.00;;
24459;SDS011;12630;50.860;5.714;2022-10-16T07:21:25;3.03;;;1.20;;
24459;SDS011;12630;50.860;5.714;2022-10-16T07:23:54;1.92;;;1.45;;
24459;SDS011;12630;50.860;5.714;2022-10-16T07:26:23;2.55;;;1.40;;
24459;SDS011;12630;50.860;5.714;2022-10-16T07:28:52;2.97;;;1.17;;
24459;SDS011;12630;50.860;5.714;2022-10-16T07:31:20;2.95;;;1.10;;
24459;SDS011;12630;50.860;5.714;2022-10-16T07:33:48;5.50;;;1.20;;
24459;SDS011;12630;50.860;5.714;2022-10-16T07:36:18;2.78;;;1.08;;
24459;SDS011;12630;50.860;5.714;2022-10-16T07:38:46;2.38;;;1.20;;
24459;SDS011;12630;50.860;5.714;2022-10-16T07:41:14;2.28;;;1.55;;
24459;SDS011;12630;50.860;5.714;2022-10-16T07:43:45;1.35;;;0.90;;
24459;SDS011;12630;50.860;5.714;2022-10-16T07:46:13;1.77;;;1.10;;
24459;SDS011;12630;50.860;5.714;2022-10-16T07:48:41;1.95;;;0.90;;
24459;SDS011;12630;50.860;5.714;2022-10-16T07:51:11;6.38;;;1.05;;
24459;SDS011;12630;50.860;5.714;2022-10-16T07:53:41;3.28;;;0.80;;
24459;SDS011;12630;50.860;5.714;2022-10-16T07:56:09;2.55;;;1.00;;
24459;SDS011;12630;50.860;5.714;2022-10-16T07:58:37;4.13;;;0.90;;
24459;SDS011;12630;50.860;5.714;2022-10-16T08:01:05;3.85;;;1.10;;
24459;SDS011;12630;50.860;5.714;2022-10-16T08:03:34;1.95;;;0.98;;
24459;SDS011;12630;50.860;5.714;2022-10-16T08:06:01;2.55;;;0.93;;
24459;SDS011;12630;50.860;5.714;2022-10-16T08:08:30;2.83;;;1.00;;
24459;SDS011;12630;50.860;5.714;2022-10-16T08:10:59;2.58;;;1.00;;
24459;SDS011;12630;50.860;5.714;2022-10-16T08:13:29;2.33;;;0.82;;
24459;SDS011;12630;50.860;5.714;2022-10-16T08:15:56;3.30;;;0.75;;
24459;SDS011;12630;50.860;5.714;2022-10-16T08:18:23;5.22;;;0.77;;
24459;SDS011;12630;50.860;5.714;2022-10-16T08:20:55;2.00;;;0.80;;
24459;SDS011;12630;50.860;5.714;2022-10-16T08:23:23;2.10;;;0.80;;
24459;SDS011;12630;50.860;5.714;2022-10-16T08:25:51;2.45;;;0.40;;
24459;SDS011;12630;50.860;5.714;2022-10-16T08:28:21;1.08;;;0.70;;
24459;SDS011;12630;50.860;5.714;2022-10-16T08:30:49;2.22;;;0.60;;
24459;SDS011;12630;50.860;5.714;2022-10-16T08:33:16;2.95;;;0.55;;
24459;SDS011;12630;50.860;5.714;2022-10-16T08:35:49;1.85;;;0.60;;
24459;SDS011;12630;50.860;5.714;2022-10-16T08:38:18;1.77;;;0.45;;
24459;SDS011;12630;50.860;5.714;2022-10-16T08:40:46;0.90;;;0.52;;
24459;SDS011;12630;50.860;5.714;2022-10-16T08:43:39;2.53;;;0.70;;
24459;SDS011;12630;50.860;5.714;2022-10-16T08:46:21;0.73;;;0.40;;
24459;SDS011;12630;50.860;5.714;2022-10-16T08:48:59;1.58;;;0.60;;
24459;SDS011;12630;50.860;5.714;2022-10-16T08:51:29;2.33;;;0.63;;
24459;SDS011;12630;50.860;5.714;2022-10-16T08:56:27;1.83;;;0.90;;
24459;SDS011;12630;50.860;5.714;2022-10-16T08:58:57;3.08;;;0.70;;
24459;SDS011;12630;50.860;5.714;2022-10-16T09:01:28;1.65;;;0.40;;
24459;SDS011;12630;50.860;5.714;2022-10-16T09:04:07;1.13;;;0.57;;
24459;SDS011;12630;50.860;5.714;2022-10-16T09:07:09;2.20;;;0.60;;
24459;SDS011;12630;50.860;5.714;2022-10-16T09:09:47;3.15;;;0.55;;
24459;SDS011;12630;50.860;5.714;2022-10-16T09:12:27;6.93;;;0.75;;
24459;SDS011;12630;50.860;5.714;2022-10-16T09:15:10;0.88;;;0.60;;
24459;SDS011;12630;50.860;5.714;2022-10-16T09:17:49;3.10;;;0.95;;
24459;SDS011;12630;50.860;5.714;2022-10-16T09:20:26;1.60;;;0.50;;
24459;SDS011;12630;50.860;5.714;2022-10-16T09:23:08;2.22;;;0.80;;
24459;SDS011;12630;50.860;5.714;2022-10-16T09:25:41;2.90;;;1.00;;
24459;SDS011;12630;50.860;5.714;2022-10-16T09:28:11;2.25;;;0.50;;
24459;SDS011;12630;50.860;5.714;2022-10-16T09:30:39;2.38;;;0.80;;
24459;SDS011;12630;50.860;5.714;2022-10-16T09:33:07;1.73;;;0.80;;
24459;SDS011;12630;50.860;5.714;2022-10-16T09:35:36;2.45;;;0.70;;
24459;SDS011;12630;50.860;5.714;2022-10-16T09:38:06;3.47;;;0.57;;
24459;SDS011;12630;50.860;5.714;2022-10-16T09:40:35;1.33;;;0.63;;
24459;SDS011;12630;50.860;5.714;2022-10-16T09:43:11;3.35;;;0.50;;
24459;SDS011;12630;50.860;5.714;2022-10-16T09:45:54;1.35;;;0.60;;
24459;SDS011;12630;50.860;5.714;2022-10-16T09:48:23;1.23;;;0.30;;
24459;SDS011;12630;50.860;5.714;2022-10-16T09:50:57;3.92;;;0.55;;
24459;SDS011;12630;50.860;5.714;2022-10-16T09:53:26;1.60;;;0.60;;
24459;SDS011;12630;50.860;5.714;2022-10-16T09:56:05;2.85;;;0.98;;
24459;SDS011;12630;50.860;5.714;2022-10-16T09:58:32;3.35;;;0.65;;
24459;SDS011;12630;50.860;5.714;2022-10-16T10:01:01;1.50;;;0.73;;
24459;SDS011;12630;50.860;5.714;2022-10-16T10:03:35;3.17;;;0.90;;
24459;SDS011;12630;50.860;5.714;2022-10-16T10:06:07;1.33;;;0.52;;
24459;SDS011;12630;50.860;5.714;2022-10-16T10:11:48;1.60;;;0.50;;
24459;SDS011;12630;50.860;5.714;2022-10-16T10:14:20;0.70;;;0.40;;
24459;SDS011;12630;50.860;5.714;2022-10-16T10:16:51;4.30;;;0.75;;
24459;SDS011;12630;50.860;5.714;2022-10-16T10:19:27;2.10;;;0.70;;
24459;SDS011;12630;50.860;5.714;2022-10-16T10:21:55;1.25;;;0.50;;
24459;SDS011;12630;50.860;5.714;2022-10-16T10:24:22;1.90;;;0.52;;
24459;SDS011;12630;50.860;5.714;2022-10-16T10:26:51;1.08;;;0.55;;
24459;SDS011;12630;50.860;5.714;2022-10-16T10:29:29;1.33;;;0.60;;
24459;SDS011;12630;50.860;5.714;2022-10-16T10:32:17;2.78;;;0.88;;
24459;SDS011;12630;50.860;5.714;2022-10-16T10:34:53;1.65;;;0.50;;
24459;SDS011;12630;50.860;5.714;2022-10-16T10:37:33;2.20;;;0.60;;
24459;SDS011;12630;50.860;5.714;2022-10-16T10:40:13;2.00;;;0.63;;
24459;SDS011;12630;50.860;5.714;2022-10-16T10:42:51;5.38;;;1.00;;
24459;SDS011;12630;50.860;5.714;2022-10-16T10:45:27;2.65;;;0.82;;
24459;SDS011;12630;50.860;5.714;2022-10-16T10:48:11;1.45;;;0.50;;
24459;SDS011;12630;50.860;5.714;2022-10-16T10:51:01;2.65;;;0.90;;
24459;SDS011;12630;50.860;5.714;2022-10-16T10:53:37;1.13;;;0.60;;
24459;SDS011;12630;50.860;5.714;2022-10-16T10:56:14;2.05;;;0.50;;
24459;SDS011;12630;50.860;5.714;2022-10-16T10:58:53;1.85;;;0.77;;
24459;SDS011;12630;50.860;5.714;2022-10-16T11:01:30;2.30;;;0.60;;
24459;SDS011;12630;50.860;5.714;2022-10-16T11:04:19;3.45;;;0.50;;
24459;SDS011;12630;50.860;5.714;2022-10-16T11:07:04;2.80;;;0.73;;
24459;SDS011;12630;50.860;5.714;2022-10-16T11:09:34;1.13;;;0.55;;
24459;SDS011;12630;50.860;5.714;2022-10-16T11:12:05;1.83;;;0.70;;
24459;SDS011;12630;50.860;5.714;2022-10-16T11:14:39;2.97;;;0.85;;
24459;SDS011;12630;50.860;5.714;2022-10-16T11:17:10;0.88;;;0.45;;
24459;SDS011;12630;50.860;5.714;2022-10-16T11:19:44;2.75;;;0.70;;
24459;SDS011;12630;50.860;5.714;2022-10-16T11:22:16;1.30;;;0.75;;
24459;SDS011;12630;50.860;5.714;2022-10-16T11:24:49;4.55;;;1.23;;
24459;SDS011;12630;50.860;5.714;2022-10-16T11:27:23;2.80;;;0.70;;
24459;SDS011;12630;50.860;5.714;2022-10-16T11:29:57;1.52;;;0.70;;
24459;SDS011;12630;50.860;5.714;2022-10-16T11:32:27;0.93;;;0.60;;
24459;SDS011;12630;50.860;5.714;2022-10-16T11:35:02;1.33;;;0.70;;
24459;SDS011;12630;50.860;5.714;2022-10-16T11:37:38;1.40;;;0.57;;
24459;SDS011;12630;50.860;5.714;2022-10-16T11:40:16;2.35;;;0.73;;
24459;SDS011;12630;50.860;5.714;2022-10-16T11:42:50;1.02;;;0.77;;
24459;SDS011;12630;50.860;5.714;2022-10-16T11:45:23;2.10;;;0.80;;
24459;SDS011;12630;50.860;5.714;2022-10-16T11:47:59;6.00;;;1.10;;
24459;SDS011;12630;50.860;5.714;2022-10-16T11:50:35;3.42;;;0.73;;
24459;SDS011;12630;50.860;5.714;2022-10-16T11:53:13;1.98;;;0.63;;
24459;SDS011;12630;50.860;5.714;2022-10-16T11:55:45;1.42;;;0.57;;
24459;SDS011;12630;50.860;5.714;2022-10-16T11:58:15;3.20;;;0.63;;
24459;SDS011;12630;50.860;5.714;2022-10-16T12:00:53;2.42;;;0.60;;
24459;SDS011;12630;50.860;5.714;2022-10-16T12:03:26;1.15;;;0.57;;
24459;SDS011;12630;50.860;5.714;2022-10-16T12:06:12;0.65;;;0.40;;
24459;SDS011;12630;50.860;5.714;2022-10-16T12:08:49;1.20;;;0.57;;
24459;SDS011;12630;50.860;5.714;2022-10-16T12:11:22;1.58;;;0.70;;
24459;SDS011;12630;50.860;5.714;2022-10-16T12:14:06;2.38;;;0.88;;
24459;SDS011;12630;50.860;5.714;2022-10-16T12:16:50;1.10;;;0.35;;
24459;SDS011;12630;50.860;5.714;2022-10-16T12:19:20;3.70;;;0.63;;
24459;SDS011;12630;50.860;5.714;2022-10-16T12:21:50;1.00;;;0.50;;
24459;SDS011;12630;50.860;5.714;2022-10-16T12:24:20;2.35;;;0.90;;
24459;SDS011;12630;50.860;5.714;2022-10-16T12:26:54;2.55;;;0.70;;
24459;SDS011;12630;50.860;5.714;2022-10-16T12:29:26;3.05;;;0.55;;
24459;SDS011;12630;50.860;5.714;2022-10-16T12:31:58;3.58;;;0.55;;
24459;SDS011;12630;50.860;5.714;2022-10-16T12:34:27;1.88;;;0.43;;
24459;SDS011;12630;50.860;5.714;2022-10-16T12:39:34;2.20;;;0.55;;
24459;SDS011;12630;50.860;5.714;2022-10-16T12:42:03;3.53;;;0.68;;
24459;SDS011;12630;50.860;5.714;2022-10-16T12:44:32;1.30;;;0.70;;
24459;SDS011;12630;50.860;5.714;2022-10-16T12:47:00;1.10;;;0.50;;
24459;SDS011;12630;50.860;5.714;2022-10-16T12:49:34;1.35;;;0.55;;
24459;SDS011;12630;50.860;5.714;2022-10-16T12:55:01;1.98;;;0.50;;
24459;SDS011;12630;50.860;5.714;2022-10-16T12:57:32;3.50;;;0.80;;
24459;SDS011;12630;50.860;5.714;2022-10-16T13:00:12;4.88;;;0.60;;
24459;SDS011;12630;50.860;5.714;2022-10-16T13:02:55;0.90;;;0.20;;
24459;SDS011;12630;50.860;5.714;2022-10-16T13:05:41;2.67;;;0.77;;
24459;SDS011;12630;50.860;5.714;2022-10-16T13:08:27;2.88;;;0.80;;
24459;SDS011;12630;50.860;5.714;2022-10-16T13:11:08;2.80;;;0.57;;
24459;SDS011;12630;50.860;5.714;2022-10-16T13:13:47;2.88;;;0.40;;
24459;SDS011;12630;50.860;5.714;2022-10-16T13:16:37;1.45;;;0.50;;
24459;SDS011;12630;50.860;5.714;2022-10-16T13:19:18;1.70;;;0.43;;
24459;SDS011;12630;50.860;5.714;2022-10-16T13:21:54;0.52;;;0.40;;
24459;SDS011;12630;50.860;5.714;2022-10-16T13:24:33;0.95;;;0.47;;
24459;SDS011;12630;50.860;5.714;2022-10-16T13:27:12;1.17;;;0.40;;
24459;SDS011;12630;50.860;5.714;2022-10-16T13:29:54;2.47;;;0.80;;
24459;SDS011;12630;50.860;5.714;2022-10-16T13:32:29;0.32;;;0.30;;
24459;SDS011;12630;50.860;5.714;2022-10-16T13:34:57;1.38;;;0.40;;
24459;SDS011;12630;50.860;5.714;2022-10-16T13:37:26;2.22;;;0.40;;
24459;SDS011;12630;50.860;5.714;2022-10-16T13:40:04;3.65;;;0.70;;
24459;SDS011;12630;50.860;5.714;2022-10-16T13:42:44;2.35;;;0.40;;
24459;SDS011;12630;50.860;5.714;2022-10-16T13:45:19;3.47;;;0.68;;
24459;SDS011;12630;50.860;5.714;2022-10-16T13:47:47;2.50;;;0.65;;
24459;SDS011;12630;50.860;5.714;2022-10-16T13:50:15;1.40;;;0.60;;
24459;SDS011;12630;50.860;5.714;2022-10-16T13:52:43;2.83;;;0.50;;
24459;SDS011;12630;50.860;5.714;2022-10-16T13:55:13;1.77;;;0.70;;
24459;SDS011;12630;50.860;5.714;2022-10-16T13:57:41;6.53;;;0.60;;
24459;SDS011;12630;50.860;5.714;2022-10-16T14:00:19;16.67;;;1.98;;
24459;SDS011;12630;50.860;5.714;2022-10-16T14:02:50;0.93;;;0.50;;
24459;SDS011;12630;50.860;5.714;2022-10-16T14:05:22;1.20;;;0.80;;
24459;SDS011;12630;50.860;5.714;2022-10-16T14:07:49;1.73;;;0.52;;
24459;SDS011;12630;50.860;5.714;2022-10-16T14:10:20;4.10;;;1.20;;
24459;SDS011;12630;50.860;5.714;2022-10-16T14:12:56;3.13;;;1.08;;
24459;SDS011;12630;50.860;5.714;2022-10-16T14:15:25;2.45;;;0.63;;
24459;SDS011;12630;50.860;5.714;2022-10-16T14:17:53;0.77;;;0.60;;
24459;SDS011;12630;50.860;5.714;2022-10-16T14:20:22;1.92;;;0.93;;
24459;SDS011;12630;50.860;5.714;2022-10-16T14:22:59;0.68;;;0.47;;
24459;SDS011;12630;50.860;5.714;2022-10-16T14:25:30;1.23;;;0.80;;
24459;SDS011;12630;50.860;5.714;2022-10-16T14:27:59;3.08;;;0.90;;
24459;SDS011;12630;50.860;5.714;2022-10-16T14:30:29;2.40;;;0.68;;
24459;SDS011;12630;50.860;5.714;2022-10-16T14:32:58;1.67;;;0.70;;
24459;SDS011;12630;50.860;5.714;2022-10-16T14:35:27;4.35;;;0.95;;
24459;SDS011;12630;50.860;5.714;2022-10-16T14:37:56;3.40;;;0.90;;
24459;SDS011;12630;50.860;5.714;2022-10-16T14:40:26;2.13;;;0.80;;
24459;SDS011;12630;50.860;5.714;2022-10-16T14:42:57;2.58;;;1.15;;
24459;SDS011;12630;50.860;5.714;2022-10-16T14:47:54;5.63;;;0.85;;
24459;SDS011;12630;50.860;5.714;2022-10-16T14:50:23;1.70;;;0.77;;
24459;SDS011;12630;50.860;5.714;2022-10-16T14:52:51;2.60;;;0.65;;
24459;SDS011;12630;50.860;5.714;2022-10-16T14:55:18;2.97;;;0.90;;
24459;SDS011;12630;50.860;5.714;2022-10-16T14:57:46;3.33;;;0.98;;
24459;SDS011;12630;50.860;5.714;2022-10-16T15:00:18;3.25;;;0.82;;
24459;SDS011;12630;50.860;5.714;2022-10-16T15:02:48;8.30;;;0.70;;
24459;SDS011;12630;50.860;5.714;2022-10-16T15:05:17;2.25;;;1.10;;
24459;SDS011;12630;50.860;5.714;2022-10-16T15:07:47;2.78;;;1.10;;
24459;SDS011;12630;50.860;5.714;2022-10-16T15:10:15;1.52;;;0.95;;
24459;SDS011;12630;50.860;5.714;2022-10-16T15:12:44;2.45;;;0.60;;
24459;SDS011;12630;50.860;5.714;2022-10-16T15:18:03;2.88;;;0.82;;
24459;SDS011;12630;50.860;5.714;2022-10-16T15:20:31;2.05;;;0.68;;
24459;SDS011;12630;50.860;5.714;2022-10-16T15:23:00;2.33;;;0.90;;
24459;SDS011;12630;50.860;5.714;2022-10-16T15:25:32;1.10;;;0.80;;
24459;SDS011;12630;50.860;5.714;2022-10-16T15:28:05;2.35;;;0.90;;
24459;SDS011;12630;50.860;5.714;2022-10-16T15:30:34;1.55;;;0.57;;
24459;SDS011;12630;50.860;5.714;2022-10-16T15:33:02;1.30;;;0.70;;
24459;SDS011;12630;50.860;5.714;2022-10-16T15:35:31;3.33;;;0.70;;